Time;durP1;ratioP1;P1;durP2;ratioP2;P2;SDS_P1;SDS_P2;PMS_P1;PMS_P2;Temp;Humidity;BMP_temperature;BMP_pressure;BME280_temperature;BME280_humidity;BME280_pressure;Samples;Min_cycle;Max_cycle;Signal;HPM_P1;HPM_P2
2023/11/15 00:01:05;;;;;;;2.67;0.70;;;;;;;9.55;100.00;96815.78;5041008;28;20044;-63
2023/11/15 00:03:32;;;;;;;1.85;1.20;;;;;;;9.59;100.00;96800.69;5033974;28;20036;-63
2023/11/15 00:05:59;;;;;;;0.70;0.50;;;;;;;9.59;100.00;96806.09;5044902;28;20044;-63
2023/11/15 00:08:26;;;;;;;1.50;0.40;;;;;;;9.56;100.00;96826.34;5034203;28;20041;-64
2023/11/15 00:10:52;;;;;;;0.63;0.35;;;;;;;9.63;100.00;96813.41;5034910;28;20045;-63
2023/11/15 00:13:19;;;;;;;1.92;0.60;;;;;;;9.44;100.00;96829.19;5036723;28;20052;-63
2023/11/15 00:15:45;;;;;;;1.40;0.50;;;;;;;9.45;100.00;96824.63;5042831;28;20064;-64
2023/11/15 00:18:13;;;;;;;1.92;0.43;;;;;;;9.50;100.00;96824.66;5046342;28;20115;-64
2023/11/15 00:20:40;;;;;;;1.20;0.50;;;;;;;9.45;100.00;96838.13;5036685;28;20045;-64
2023/11/15 00:23:08;;;;;;;4.50;0.82;;;;;;;9.50;100.00;96832.75;5039804;28;20538;-63
2023/11/15 00:25:35;;;;;;;3.17;0.50;;;;;;;9.42;100.00;96847.56;5031236;28;20034;-62
2023/11/15 00:28:02;;;;;;;2.38;0.52;;;;;;;9.36;100.00;96854.81;5027850;28;20052;-62
2023/11/15 00:30:29;;;;;;;1.88;0.50;;;;;;;9.17;100.00;96865.19;5032102;28;20539;-62
2023/11/15 00:32:55;;;;;;;1.65;0.50;;;;;;;9.19;100.00;96859.53;5034911;28;20117;-63
2023/11/15 00:35:23;;;;;;;4.25;1.05;;;;;;;9.15;100.00;96869.22;5030585;28;20709;-62
2023/11/15 00:37:49;;;;;;;2.38;0.68;;;;;;;9.12;100.00;96862.44;5029371;28;20041;-62
2023/11/15 00:40:16;;;;;;;0.95;0.57;;;;;;;9.13;100.00;96871.34;5042149;28;20060;-62
2023/11/15 00:42:43;;;;;;;5.13;0.63;;;;;;;9.21;100.00;96869.00;5038137;28;20102;-63
2023/11/15 00:45:11;;;;;;;2.95;0.73;;;;;;;9.15;100.00;96886.25;5046946;28;20053;-62
2023/11/15 00:47:39;;;;;;;4.45;0.90;;;;;;;9.14;100.00;96889.19;5040551;28;20052;-63
2023/11/15 00:50:07;;;;;;;3.78;1.45;;;;;;;9.20;100.00;96901.66;5043276;28;20603;-62
2023/11/15 00:52:33;;;;;;;1.00;0.52;;;;;;;9.26;100.00;96902.53;5038076;28;20408;-61
2023/11/15 00:55:00;;;;;;;2.28;0.70;;;;;;;9.27;100.00;96906.84;5041541;28;20048;-63
2023/11/15 00:57:27;;;;;;;4.50;0.77;;;;;;;9.23;100.00;96893.88;5046343;28;20044;-63
2023/11/15 00:59:54;;;;;;;1.52;0.50;;;;;;;9.22;100.00;96907.66;5033470;28;20116;-62
2023/11/15 01:02:21;;;;;;;3.17;0.40;;;;;;;9.11;100.00;96910.22;5032148;28;20055;-62
2023/11/15 01:04:51;;;;;;;1.63;0.40;;;;;;;9.13;100.00;96907.28;5042669;28;20037;-63
2023/11/15 01:07:18;;;;;;;5.18;0.60;;;;;;;9.07;100.00;96913.69;5039767;28;20052;-62
2023/11/15 01:09:44;;;;;;;2.35;0.68;;;;;;;9.16;100.00;96911.34;5035203;28;20048;-63
2023/11/15 01:12:11;;;;;;;4.50;0.88;;;;;;;9.10;100.00;96926.66;5027866;28;20048;-64
2023/11/15 01:14:37;;;;;;;5.38;0.82;;;;;;;9.17;100.00;96940.81;5046117;28;20037;-62
2023/11/15 01:17:04;;;;;;;1.35;0.40;;;;;;;9.15;100.00;96934.03;5046533;28;20052;-63
2023/11/15 01:19:31;;;;;;;3.65;0.77;;;;;;;9.12;100.00;96946.16;5050708;28;20507;-63
2023/11/15 01:21:58;;;;;;;3.80;0.70;;;;;;;9.06;100.00;96937.19;5040800;28;20068;-62
2023/11/15 01:24:25;;;;;;;3.60;0.65;;;;;;;8.96;100.00;96947.88;5034807;28;20059;-63
2023/11/15 01:26:52;;;;;;;6.88;0.90;;;;;;;8.86;100.00;96945.84;5033253;28;20045;-62
2023/11/15 01:29:19;;;;;;;1.77;0.52;;;;;;;8.88;100.00;96957.22;5040036;28;20801;-63
2023/11/15 01:31:46;;;;;;;2.80;0.70;;;;;;;8.72;100.00;96953.50;5043317;28;20131;-62
2023/11/15 01:34:16;;;;;;;3.17;0.75;;;;;;;8.79;100.00;96950.63;5039775;28;20128;-62
2023/11/15 01:36:46;;;;;;;3.30;0.75;;;;;;;8.81;100.00;96954.69;5042863;28;20041;-64
2023/11/15 01:39:16;;;;;;;7.35;1.00;;;;;;;8.84;100.00;96956.91;5037995;28;20495;-63
2023/11/15 01:41:48;;;;;;;1.30;0.50;;;;;;;8.71;100.00;96952.69;5040037;28;20041;-63
2023/11/15 01:44:16;;;;;;;4.82;0.70;;;;;;;8.76;100.00;96960.03;5044641;28;20150;-64
2023/11/15 01:46:46;;;;;;;2.05;0.50;;;;;;;8.81;100.00;96954.69;5037074;28;20038;-62
2023/11/15 01:49:12;;;;;;;4.45;0.50;;;;;;;8.78;100.00;96962.50;5041852;28;20811;-61
2023/11/15 01:51:39;;;;;;;1.48;0.57;;;;;;;8.76;100.00;96956.50;5048190;28;20051;-63
2023/11/15 01:54:06;;;;;;;2.75;0.63;;;;;;;8.82;100.00;96966.31;5037924;28;20068;-62
2023/11/15 01:56:33;;;;;;;3.38;0.80;;;;;;;8.75;100.00;96982.72;5052417;28;20037;-62
2023/11/15 01:59:01;;;;;;;3.60;0.60;;;;;;;8.53;100.00;96991.59;5044389;28;20044;-62
2023/11/15 02:01:31;;;;;;;7.30;1.15;;;;;;;8.18;100.00;96979.97;5034465;28;20040;-62
2023/11/15 02:03:58;;;;;;;2.33;1.10;;;;;;;8.06;100.00;96979.25;5039102;28;20045;-63
2023/11/15 02:06:30;;;;;;;3.38;0.63;;;;;;;7.98;100.00;96983.19;5041118;28;21104;-62
2023/11/15 02:08:58;;;;;;;4.57;1.40;;;;;;;7.94;100.00;96985.56;5043556;28;20033;-63
2023/11/15 02:11:26;;;;;;;3.33;0.75;;;;;;;7.91;100.00;96996.00;5036450;28;20053;-63
2023/11/15 02:13:52;;;;;;;4.82;1.10;;;;;;;7.94;100.00;96980.16;5046323;28;20049;-62
2023/11/15 02:16:21;;;;;;;2.05;0.63;;;;;;;8.04;100.00;96989.47;5040980;28;20560;-63
2023/11/15 02:18:48;;;;;;;4.95;0.90;;;;;;;8.14;100.00;96981.53;5040078;28;20140;-62
2023/11/15 02:21:15;;;;;;;2.42;0.60;;;;;;;8.15;100.00;96987.75;5034830;28;20048;-63
2023/11/15 02:23:43;;;;;;;3.53;0.73;;;;;;;8.21;100.00;96981.38;5033576;28;20053;-63
2023/11/15 02:26:09;;;;;;;3.75;0.90;;;;;;;8.20;100.00;96988.66;5030093;28;20425;-63
2023/11/15 02:28:36;;;;;;;3.08;0.90;;;;;;;8.18;100.00;96988.06;5024839;28;20045;-63
2023/11/15 02:31:03;;;;;;;5.57;0.98;;;;;;;8.25;100.00;97003.28;5039805;28;20044;-62
2023/11/15 02:33:30;;;;;;;2.55;0.70;;;;;;;8.27;100.00;96990.34;5039703;28;20500;-62
2023/11/15 02:35:56;;;;;;;3.40;0.90;;;;;;;8.31;100.00;96996.91;5039307;28;20106;-63
2023/11/15 02:38:23;;;;;;;3.38;1.00;;;;;;;8.32;100.00;96990.44;5037169;28;20065;-62
2023/11/15 02:40:50;;;;;;;6.78;1.00;;;;;;;8.30;100.00;96992.56;5037108;28;20064;-62
2023/11/15 02:43:16;;;;;;;2.67;0.75;;;;;;;8.30;100.00;96992.56;5034624;28;20742;-63
2023/11/15 02:45:43;;;;;;;4.80;0.70;;;;;;;8.27;100.00;96998.44;5039538;28;20043;-62
2023/11/15 02:48:09;;;;;;;2.30;0.60;;;;;;;8.31;100.00;97005.00;5036502;28;20583;-63
2023/11/15 02:50:36;;;;;;;2.67;0.80;;;;;;;8.24;100.00;97001.63;5030962;28;20045;-63
2023/11/15 02:53:06;;;;;;;4.57;0.90;;;;;;;8.30;100.00;97016.84;5046689;28;20136;-61
2023/11/15 02:55:33;;;;;;;3.20;0.82;;;;;;;8.25;100.00;97024.88;5034126;28;20634;-64
2023/11/15 02:58:00;;;;;;;1.85;0.70;;;;;;;8.24;100.00;97025.91;5024217;28;20643;-63
2023/11/15 03:00:29;;;;;;;2.85;0.80;;;;;;;8.11;100.00;97027.84;5038300;28;20092;-64
2023/11/15 03:02:56;;;;;;;3.30;0.73;;;;;;;8.18;100.00;97028.53;5045837;28;20052;-63
2023/11/15 03:05:22;;;;;;;3.38;0.85;;;;;;;8.19;100.00;97035.53;5031096;28;20041;-62
2023/11/15 03:07:49;;;;;;;2.45;0.93;;;;;;;8.20;100.00;97050.69;5033539;28;20037;-63
2023/11/15 03:10:15;;;;;;;4.50;0.65;;;;;;;8.29;100.00;97043.00;5052381;28;20041;-63
2023/11/15 03:12:42;;;;;;;3.22;0.60;;;;;;;8.24;100.00;97051.00;5039962;28;20041;-63
2023/11/15 03:15:09;;;;;;;2.42;0.47;;;;;;;8.23;100.00;97072.81;5030976;28;20045;-63
2023/11/15 03:17:36;;;;;;;3.90;0.82;;;;;;;8.26;100.00;97061.56;5042462;28;20530;-61
2023/11/15 03:20:03;;;;;;;3.88;0.73;;;;;;;8.28;100.00;97062.13;5031466;28;20069;-63
2023/11/15 03:22:29;;;;;;;2.72;0.40;;;;;;;8.22;100.00;97061.22;5035454;28;20124;-63
2023/11/15 03:24:56;;;;;;;1.17;0.35;;;;;;;8.14;100.00;97059.75;5029510;28;20632;-63
2023/11/15 03:27:23;;;;;;;1.58;0.55;;;;;;;8.07;100.00;97059.91;5033081;28;20059;-62
2023/11/15 03:29:49;;;;;;;1.40;0.60;;;;;;;8.04;100.00;97056.88;5041284;28;20591;-63
2023/11/15 03:32:17;;;;;;;5.88;1.00;;;;;;;7.88;100.00;97074.63;5038351;28;20464;-62
2023/11/15 03:34:43;;;;;;;3.40;0.85;;;;;;;7.92;100.00;97057.75;5035838;28;20123;-63
2023/11/15 03:37:10;;;;;;;3.47;0.80;;;;;;;7.92;100.00;97076.63;5040154;28;20052;-61
2023/11/15 03:39:40;;;;;;;2.97;0.82;;;;;;;7.89;100.00;97060.94;5038764;28;20040;-63
2023/11/15 03:42:06;;;;;;;4.72;1.10;;;;;;;7.90;100.00;97076.06;5043158;28;20036;-63
2023/11/15 03:44:33;;;;;;;2.88;0.80;;;;;;;7.77;100.00;97081.72;5042196;28;20413;-62
2023/11/15 03:47:00;;;;;;;3.03;0.70;;;;;;;7.84;100.00;97084.28;5042384;28;20079;-62
2023/11/15 03:49:27;;;;;;;2.58;0.90;;;;;;;7.85;100.00;97091.31;5038081;28;20071;-62
2023/11/15 03:51:53;;;;;;;8.38;0.73;;;;;;;7.84;100.00;97076.19;5036925;28;20658;-63
2023/11/15 03:54:20;;;;;;;3.67;0.70;;;;;;;7.84;100.00;97089.66;5027453;28;20048;-62
2023/11/15 03:56:47;;;;;;;1.45;0.70;;;;;;;7.92;100.00;97083.88;5043720;28;20041;-63
2023/11/15 03:59:13;;;;;;;3.50;0.80;;;;;;;7.87;100.00;97089.19;5036188;28;20138;-62
2023/11/15 04:01:40;;;;;;;2.58;0.75;;;;;;;7.82;100.00;97092.63;5029764;28;20049;-62
2023/11/15 04:04:22;;;;;;;5.70;0.77;;;;;;;7.70;100.00;97087.25;5038219;28;20068;-63
2023/11/15 04:06:50;;;;;;;5.13;0.85;;;;;;;7.65;100.00;97095.25;5043097;28;20525;-63
2023/11/15 04:09:16;;;;;;;3.58;0.85;;;;;;;7.66;100.00;97097.72;5033138;28;20091;-63
2023/11/15 04:11:43;;;;;;;4.00;1.00;;;;;;;7.66;100.00;97092.31;5035601;28;20041;-63
2023/11/15 04:14:10;;;;;;;5.05;2.20;;;;;;;7.63;100.00;97090.09;5042624;28;20511;-63
2023/11/15 04:16:36;;;;;;;2.53;0.95;;;;;;;7.52;100.00;97090.97;5040793;28;20045;-63
2023/11/15 04:19:03;;;;;;;2.42;0.95;;;;;;;7.54;100.00;97102.31;5039805;28;20746;-62
2023/11/15 04:21:31;;;;;;;2.80;0.90;;;;;;;7.61;100.00;97097.63;5038981;28;20056;-62
2023/11/15 04:23:58;;;;;;;4.60;0.82;;;;;;;7.64;100.00;97101.72;5034576;28;20041;-62
2023/11/15 04:26:25;;;;;;;4.78;1.05;;;;;;;7.65;100.00;97114.94;5035444;28;20124;-64
2023/11/15 04:28:52;;;;;;;2.90;0.90;;;;;;;7.63;100.00;97125.13;5035154;28;20119;-62
2023/11/15 04:31:18;;;;;;;4.32;0.80;;;;;;;7.68;100.00;97127.91;5041949;28;20129;-63
2023/11/15 04:33:45;;;;;;;5.03;1.00;;;;;;;7.67;100.00;97133.56;5037265;28;20049;-63
2023/11/15 04:36:14;;;;;;;3.00;0.88;;;;;;;7.70;100.00;97149.25;5036800;28;20048;-62
2023/11/15 04:38:40;;;;;;;4.57;1.00;;;;;;;7.70;100.00;97143.84;5038187;28;20092;-63
2023/11/15 04:41:07;;;;;;;6.78;1.50;;;;;;;7.78;100.00;97151.56;5036052;28;20602;-62
2023/11/15 04:43:33;;;;;;;4.15;0.82;;;;;;;7.85;100.00;97156.81;5050219;28;20645;-63
2023/11/15 04:46:00;;;;;;;3.00;0.70;;;;;;;7.92;100.00;97164.75;5045061;28;20041;-62
2023/11/15 04:48:26;;;;;;;3.30;0.80;;;;;;;7.85;100.00;97158.72;5037169;28;20098;-63
2023/11/15 04:50:54;;;;;;;4.68;1.00;;;;;;;7.90;100.00;97169.59;5039124;28;20187;-62
2023/11/15 04:53:21;;;;;;;2.88;0.90;;;;;;;7.89;100.00;97170.66;5040937;28;20053;-63
2023/11/15 04:55:47;;;;;;;3.97;1.10;;;;;;;7.82;100.00;97165.41;5041801;28;20049;-63
2023/11/15 04:58:14;;;;;;;4.00;0.80;;;;;;;7.71;100.00;97171.63;5041127;28;20438;-62
2023/11/15 05:00:41;;;;;;;2.15;0.80;;;;;;;7.67;100.00;97172.09;5042630;28;20051;-62
2023/11/15 05:03:10;;;;;;;4.40;0.80;;;;;;;7.68;100.00;97172.94;5032560;28;20053;-63
2023/11/15 05:05:39;;;;;;;3.55;0.90;;;;;;;7.72;100.00;97184.88;5037153;28;20045;-63
2023/11/15 05:08:05;;;;;;;1.00;0.47;;;;;;;7.61;100.00;97180.31;5045059;28;20045;-63
2023/11/15 05:10:32;;;;;;;3.28;0.98;;;;;;;7.65;100.00;97179.63;5041781;28;20503;-64
2023/11/15 05:12:59;;;;;;;4.35;0.88;;;;;;;7.64;100.00;97180.69;5034851;28;20037;-62
2023/11/15 05:15:25;;;;;;;2.55;0.95;;;;;;;7.68;100.00;97175.63;5036074;28;20436;-62
2023/11/15 05:17:52;;;;;;;4.43;1.20;;;;;;;7.74;100.00;97174.66;5035391;28;20091;-64
2023/11/15 05:20:19;;;;;;;5.03;0.80;;;;;;;7.88;100.00;97180.59;5033987;28;20058;-62
2023/11/15 05:22:45;;;;;;;4.03;0.93;;;;;;;7.94;100.00;97186.94;5030359;28;20052;-63
2023/11/15 05:25:12;;;;;;;5.80;1.02;;;;;;;8.00;100.00;97191.34;5038536;28;20052;-62
2023/11/15 05:27:39;;;;;;;5.80;1.15;;;;;;;7.98;100.00;97181.84;5043262;28;20053;-62
2023/11/15 05:30:06;;;;;;;4.05;1.08;;;;;;;7.89;100.00;97182.25;5042470;28;20045;-63
2023/11/15 05:32:33;;;;;;;4.22;1.10;;;;;;;7.92;100.00;97189.84;5032025;28;20037;-63
2023/11/15 05:35:00;;;;;;;7.68;1.15;;;;;;;7.94;100.00;97181.53;5044001;28;20053;-62
2023/11/15 05:37:26;;;;;;;3.75;1.23;;;;;;;8.00;100.00;97194.03;5047247;28;20037;-64
2023/11/15 05:39:53;;;;;;;5.72;1.70;;;;;;;8.02;100.00;97185.72;5049254;28;20247;-62
2023/11/15 05:42:20;;;;;;;4.80;1.15;;;;;;;7.90;100.00;97191.16;5039065;28;20677;-62
2023/11/15 05:44:48;;;;;;;5.60;1.20;;;;;;;7.80;100.00;97207.94;5042159;28;20060;-63
2023/11/15 05:47:18;;;;;;;5.93;1.00;;;;;;;7.84;100.00;97205.56;5044726;28;20078;-63
2023/11/15 05:49:44;;;;;;;5.03;1.00;;;;;;;7.81;100.00;97212.25;5037982;28;20137;-63
2023/11/15 05:52:12;;;;;;;7.90;1.27;;;;;;;7.78;100.00;97213.56;5041203;28;20109;-62
2023/11/15 05:54:38;;;;;;;3.38;0.70;;;;;;;7.85;100.00;97240.38;5034987;28;20037;-63
2023/11/15 05:57:05;;;;;;;3.78;0.52;;;;;;;7.83;100.00;97220.94;5045054;28;20048;-64
2023/11/15 05:59:31;;;;;;;3.70;1.10;;;;;;;7.82;100.00;97222.00;5042016;28;20083;-62
2023/11/15 06:01:58;;;;;;;1.88;0.65;;;;;;;7.71;100.00;97220.16;5040536;28;20068;-62
2023/11/15 06:04:25;;;;;;;2.60;0.82;;;;;;;7.67;100.00;97230.59;5029785;28;20115;-63
2023/11/15 06:06:51;;;;;;;3.15;0.60;;;;;;;7.62;100.00;97228.59;5042585;28;20112;-62
2023/11/15 06:09:18;;;;;;;5.28;0.73;;;;;;;7.54;100.00;97226.25;5040329;28;20041;-63
2023/11/15 06:11:45;;;;;;;2.30;0.60;;;;;;;7.39;100.00;97235.66;5029854;28;20033;-63
2023/11/15 06:14:14;;;;;;;4.60;0.80;;;;;;;7.30;100.00;97231.66;5036606;28;20140;-62
2023/11/15 06:16:41;;;;;;;2.80;0.73;;;;;;;7.28;100.00;97239.16;5037221;28;20037;-63
2023/11/15 06:19:08;;;;;;;1.30;0.40;;;;;;;7.35;100.00;97256.03;5039317;28;20044;-63
2023/11/15 06:21:35;;;;;;;1.67;0.50;;;;;;;7.29;100.00;97262.31;5033251;28;20041;-62
2023/11/15 06:24:02;;;;;;;4.72;0.68;;;;;;;7.20;100.00;97259.19;5032191;28;20092;-61
2023/11/15 06:26:37;;;;;;;3.97;0.68;;;;;;;7.12;100.00;97267.59;5035110;28;20044;-63
2023/11/15 06:29:05;;;;;;;2.88;0.60;;;;;;;7.09;100.00;97276.13;5037115;28;20045;-61
2023/11/15 06:31:32;;;;;;;3.72;0.80;;;;;;;7.02;100.00;97273.53;5037229;28;20041;-63
2023/11/15 06:33:58;;;;;;;4.82;1.27;;;;;;;7.07;100.00;97280.94;5041219;28;20052;-63
2023/11/15 06:36:25;;;;;;;6.28;1.50;;;;;;;7.22;100.00;97267.03;5035094;28;20052;-63
2023/11/15 06:38:52;;;;;;;2.40;0.90;;;;;;;7.32;100.00;97261.88;5039209;28;20059;-62
2023/11/15 06:41:18;;;;;;;4.65;1.20;;;;;;;7.41;100.00;97275.81;5031408;28;20138;-62
2023/11/15 06:43:45;;;;;;;3.17;0.82;;;;;;;7.36;100.00;97276.50;5041200;28;21043;-61
2023/11/15 06:46:17;;;;;;;4.30;1.10;;;;;;;7.41;100.00;97276.63;5036978;28;20160;-63
2023/11/15 06:48:44;;;;;;;5.03;1.00;;;;;;;7.41;100.00;97282.00;5043008;28;20052;-61
2023/11/15 06:51:11;;;;;;;3.72;1.15;;;;;;;7.47;100.00;97282.97;5044095;28;20110;-61
2023/11/15 06:53:38;;;;;;;4.05;1.23;;;;;;;7.42;100.00;97286.34;5031639;28;20038;-63
2023/11/15 06:56:07;;;;;;;6.18;1.25;;;;;;;7.50;100.00;97301.34;5037322;28;20131;-61
2023/11/15 06:58:35;;;;;;;8.43;1.63;;;;;;;7.56;100.00;97299.59;5044087;28;20049;-63
2023/11/15 07:01:05;;;;;;;5.93;1.40;;;;;;;7.61;100.00;97315.88;5035347;28;20475;-63
2023/11/15 07:03:31;;;;;;;4.10;1.30;;;;;;;7.71;100.00;97318.00;5046262;28;20131;-62
2023/11/15 07:05:58;;;;;;;4.40;1.15;;;;;;;7.78;100.00;97320.56;5042952;28;20117;-62
2023/11/15 07:08:26;;;;;;;4.95;1.27;;;;;;;7.90;100.00;97315.16;5035567;28;20138;-61
2023/11/15 07:10:56;;;;;;;5.05;1.10;;;;;;;7.75;100.00;97313.78;5048814;28;20095;-62
2023/11/15 07:13:23;;;;;;;5.47;1.90;;;;;;;7.84;100.00;97324.19;5043115;28;20051;-62
2023/11/15 07:15:50;;;;;;;6.15;1.10;;;;;;;7.85;100.00;97315.06;5034145;28;20776;-61
2023/11/15 07:18:17;;;;;;;5.97;1.50;;;;;;;7.86;100.00;97319.38;5046321;28;20752;-63
2023/11/15 07:20:44;;;;;;;7.32;1.30;;;;;;;7.90;100.00;97318.69;5034346;28;20068;-62
2023/11/15 07:23:11;;;;;;;6.53;1.10;;;;;;;7.84;100.00;97316.09;5028346;28;20107;-62
2023/11/15 07:25:38;;;;;;;7.25;1.55;;;;;;;7.73;100.00;97315.88;5036549;28;20116;-63
2023/11/15 07:28:04;;;;;;;5.38;1.42;;;;;;;7.79;100.00;97316.81;5039760;28;20048;-64
2023/11/15 07:30:31;;;;;;;9.52;1.40;;;;;;;7.84;100.00;97316.94;5036852;28;20111;-62
2023/11/15 07:32:58;;;;;;;7.47;1.25;;;;;;;7.91;100.00;97327.59;5037633;28;20044;-62
2023/11/15 07:35:26;;;;;;;7.95;1.20;;;;;;;7.96;100.00;97326.88;5037795;28;20471;-64
2023/11/15 07:37:52;;;;;;;6.22;1.40;;;;;;;7.94;100.00;97332.50;5040394;28;20049;-63
2023/11/15 07:40:22;;;;;;;6.57;1.48;;;;;;;7.90;100.00;97331.34;5038777;28;20037;-63
2023/11/15 07:42:49;;;;;;;6.35;1.25;;;;;;;7.91;100.00;97357.25;5038702;28;20053;-63
2023/11/15 07:45:18;;;;;;;7.60;1.23;;;;;;;7.90;100.00;97353.75;5040991;28;20436;-62
2023/11/15 07:47:48;;;;;;;6.28;1.10;;;;;;;7.91;100.00;97352.69;5042765;28;20119;-63
2023/11/15 07:50:15;;;;;;;4.68;0.98;;;;;;;7.89;100.00;97359.38;5039654;28;20052;-63
2023/11/15 07:52:43;;;;;;;4.82;0.98;;;;;;;7.90;100.00;97371.78;5035390;28;20116;-62
2023/11/15 07:55:10;;;;;;;4.70;0.90;;;;;;;7.98;100.00;97366.03;5044211;28;20817;-62
2023/11/15 07:57:37;;;;;;;7.30;0.98;;;;;;;8.08;100.00;97376.25;5039529;28;20083;-63
2023/11/15 08:00:08;;;;;;;10.48;1.67;;;;;;;8.07;100.00;97385.34;5044818;28;20059;-63
2023/11/15 08:02:38;;;;;;;2.85;0.85;;;;;;;8.07;100.00;97380.78;5034658;28;20523;-63
2023/11/15 08:05:08;;;;;;;5.13;1.00;;;;;;;8.06;100.00;97381.03;5029930;28;20045;-63
2023/11/15 08:07:37;;;;;;;4.32;1.08;;;;;;;8.06;100.00;97376.47;5042510;28;20041;-63
2023/11/15 08:10:05;;;;;;;4.05;0.95;;;;;;;8.07;100.00;97378.09;5043645;28;20115;-64
2023/11/15 08:12:35;;;;;;;5.00;1.20;;;;;;;8.02;100.00;97386.09;5039672;28;20044;-63
2023/11/15 08:15:04;;;;;;;5.60;1.13;;;;;;;8.17;100.00;97376.69;5043228;28;20049;-62
2023/11/15 08:17:33;;;;;;;5.22;0.80;;;;;;;8.27;100.00;97381.47;5033051;28;20083;-63
2023/11/15 08:19:59;;;;;;;4.35;1.30;;;;;;;8.14;100.00;97380.69;5030688;28;20127;-63
2023/11/15 08:22:26;;;;;;;5.82;1.27;;;;;;;8.10;100.00;97384.09;5034236;28;20053;-61
2023/11/15 08:24:52;;;;;;;4.80;0.90;;;;;;;8.02;100.00;97388.78;5033437;28;20051;-62
2023/11/15 08:27:19;;;;;;;5.40;0.93;;;;;;;7.98;100.00;97387.59;5034560;28;20040;-62
2023/11/15 08:29:47;;;;;;;3.47;0.75;;;;;;;8.01;100.00;97403.31;5031608;28;20048;-63
2023/11/15 08:32:15;;;;;;;6.30;1.00;;;;;;;8.01;100.00;97406.03;5039509;28;20040;-63
2023/11/15 08:34:42;;;;;;;2.60;1.48;;;;;;;8.18;100.00;97403.41;5035378;28;20525;-63
2023/11/15 08:37:08;;;;;;;3.08;0.80;;;;;;;8.41;100.00;97406.34;5036301;28;20056;-61
2023/11/15 08:39:35;;;;;;;4.35;1.08;;;;;;;8.53;100.00;97393.69;5040838;28;20049;-62
2023/11/15 08:42:02;;;;;;;6.22;0.80;;;;;;;8.59;100.00;97408.09;5038664;28;20671;-63
2023/11/15 08:44:28;;;;;;;5.53;1.05;;;;;;;8.77;100.00;97409.78;5042656;28;20087;-63
2023/11/15 08:46:55;;;;;;;8.77;0.90;;;;;;;8.70;100.00;97409.94;5031943;28;20072;-61
2023/11/15 08:49:25;;;;;;;4.05;0.88;;;;;;;8.66;100.00;97411.47;5040373;28;20049;-64
2023/11/15 08:51:52;;;;;;;1.50;0.50;;;;;;;8.61;100.00;97426.72;5037155;28;20056;-63
2023/11/15 08:54:19;;;;;;;2.92;0.77;;;;;;;8.62;100.00;97428.41;5041861;28;20059;-63
2023/11/15 08:56:47;;;;;;;4.90;1.17;;;;;;;8.62;100.00;97436.50;5036818;28;20455;-63
2023/11/15 08:59:14;;;;;;;6.57;1.10;;;;;;;8.58;100.00;97430.72;5040908;28;20053;-61
2023/11/15 09:01:42;;;;;;;5.85;1.88;;;;;;;8.57;100.00;97434.50;5039360;28;20060;-62
2023/11/15 09:04:12;;;;;;;2.08;0.80;;;;;;;8.69;100.00;97421.81;5043128;28;20048;-63
2023/11/15 09:06:41;;;;;;;4.35;0.90;;;;;;;8.51;100.00;97427.34;5036009;28;20038;-64
2023/11/15 09:09:08;;;;;;;4.88;0.80;;;;;;;8.59;100.00;97421.59;5038137;28;20045;-63
2023/11/15 09:11:35;;;;;;;2.15;0.52;;;;;;;8.70;100.00;97438.81;5039177;28;20405;-64
2023/11/15 09:14:02;;;;;;;3.08;0.75;;;;;;;8.94;100.00;97430.66;5041466;28;20053;-62
2023/11/15 09:16:29;;;;;;;2.90;0.60;;;;;;;9.01;100.00;97430.50;5036281;28;20041;-64
2023/11/15 09:18:59;;;;;;;1.73;0.68;;;;;;;9.10;100.00;97431.75;5047596;28;20507;-63
2023/11/15 09:21:25;;;;;;;3.22;0.80;;;;;;;9.28;100.00;97429.94;5046043;28;20110;-63
2023/11/15 09:23:52;;;;;;;9.00;0.93;;;;;;;9.32;100.00;97428.41;5041647;28;20136;-63
2023/11/15 09:26:20;;;;;;;2.70;0.70;;;;;;;9.22;100.00;97431.72;5034022;28;20055;-63
2023/11/15 09:28:48;;;;;;;6.88;0.85;;;;;;;9.20;100.00;97433.84;5041535;28;20052;-64
2023/11/15 09:31:15;;;;;;;3.10;0.82;;;;;;;9.10;100.00;97429.06;5036090;28;20049;-64
2023/11/15 09:33:43;;;;;;;3.03;0.77;;;;;;;9.00;100.00;97436.97;5048155;28;20110;-63
2023/11/15 09:36:10;;;;;;;5.43;0.80;;;;;;;8.74;100.00;97444.56;5041390;28;20699;-62
2023/11/15 09:38:39;;;;;;;6.68;1.10;;;;;;;8.53;100.00;97447.66;5041800;28;20045;-63
2023/11/15 09:41:11;;;;;;;2.28;0.75;;;;;;;8.48;100.00;97457.47;5035639;28;20460;-61
2023/11/15 09:43:39;;;;;;;5.47;0.70;;;;;;;8.53;100.00;97468.41;5036158;28;20641;-62
2023/11/15 09:46:10;;;;;;;3.47;0.70;;;;;;;8.54;100.00;97470.88;5038340;28;20103;-62
2023/11/15 09:48:43;;;;;;;2.20;0.70;;;;;;;8.67;100.00;97477.88;5036791;28;20111;-64
2023/11/15 09:51:12;;;;;;;3.40;0.60;;;;;;;8.62;100.00;97466.97;5042181;28;20295;-63
2023/11/15 09:53:39;;;;;;;1.65;0.60;;;;;;;8.62;100.00;97475.09;5041097;28;20041;-62
2023/11/15 09:56:08;;;;;;;2.15;0.50;;;;;;;8.65;100.00;97471.09;5041459;28;20107;-63
2023/11/15 09:58:35;;;;;;;4.28;0.98;;;;;;;8.66;100.00;97473.56;5027998;28;20054;-63
2023/11/15 10:01:02;;;;;;;3.08;0.70;;;;;;;8.66;100.00;97478.16;5030974;28;20044;-63
2023/11/15 10:03:29;;;;;;;2.20;0.70;;;;;;;8.90;100.00;97476.22;5032301;28;20055;-62
2023/11/15 10:05:59;;;;;;;2.10;1.48;;;;;;;9.01;100.00;97476.41;5052304;28;20088;-62
2023/11/15 10:08:28;;;;;;;2.80;0.85;;;;;;;9.23;100.00;97477.41;5043524;28;20095;-62
2023/11/15 10:11:04;;;;;;;2.83;0.70;;;;;;;9.24;100.00;97467.41;5043117;28;20059;-62
2023/11/15 10:13:32;;;;;;;3.72;0.90;;;;;;;9.25;100.00;97463.66;5034502;28;20039;-63
2023/11/15 10:16:01;;;;;;;3.17;0.88;;;;;;;9.13;100.00;97477.22;5038164;28;20045;-62
2023/11/15 10:18:29;;;;;;;7.70;3.30;;;;;;;9.16;100.00;97479.44;5034348;28;20063;-63
2023/11/15 10:21:07;;;;;;;3.33;1.48;;;;;;;9.23;100.00;97476.59;5038965;28;20041;-61
2023/11/15 10:23:34;;;;;;;2.70;0.80;;;;;;;9.15;100.00;97480.50;5040172;28;20040;-64
2023/11/15 10:26:06;;;;;;;4.60;1.00;;;;;;;8.94;100.00;97485.50;5034650;28;20044;-62
2023/11/15 10:28:33;;;;;;;1.80;0.60;;;;;;;8.89;100.00;97485.38;5042860;28;20041;-62
2023/11/15 10:31:07;;;;;;;1.40;0.52;;;;;;;8.88;100.00;97486.44;5042482;28;20682;-63
2023/11/15 10:33:37;;;;;;;2.17;0.60;;;;;;;8.87;100.00;97474.00;5036257;28;20041;-64
2023/11/15 10:36:21;;;;;;;2.50;0.63;;;;;;;8.83;100.00;97473.66;5048499;28;20605;-63
2023/11/15 10:38:51;;;;;;;2.90;0.60;;;;;;;8.81;100.00;97474.97;5037413;28;20053;-62
2023/11/15 10:41:20;;;;;;;3.80;0.65;;;;;;;8.83;100.00;97483.63;5042353;28;20055;-63
2023/11/15 10:43:51;;;;;;;3.08;0.80;;;;;;;8.79;100.00;97482.47;5040182;28;20046;-62
2023/11/15 10:46:33;;;;;;;3.90;0.63;;;;;;;8.70;100.00;97471.22;5040768;28;20508;-64
2023/11/15 10:49:01;;;;;;;4.15;0.70;;;;;;;8.68;100.00;97463.34;5037214;28;20049;-63
2023/11/15 10:51:44;;;;;;;3.13;1.20;;;;;;;8.64;100.00;97458.66;5040942;28;20037;-62
2023/11/15 10:54:13;;;;;;;2.45;0.60;;;;;;;8.69;100.00;97464.16;5039518;28;20769;-63
2023/11/15 10:56:43;;;;;;;4.57;0.80;;;;;;;8.85;100.00;97462.63;5039954;28;20124;-62
2023/11/15 10:59:12;;;;;;;3.90;0.90;;;;;;;8.94;100.00;97461.19;5034068;28;20056;-62
2023/11/15 11:01:40;;;;;;;2.88;0.85;;;;;;;9.01;100.00;97457.50;5036679;28;20049;-65
2023/11/15 11:04:10;;;;;;;3.10;0.65;;;;;;;9.23;100.00;97452.28;5039231;28;20160;-62
2023/11/15 11:07:07;;;;;;;3.55;0.95;;;;;;;9.34;100.00;97450.59;5036228;28;20033;-62
2023/11/15 11:09:50;;;;;;;2.90;0.90;;;;;;;9.33;100.00;97459.75;5041017;28;20056;-62
2023/11/15 11:12:21;;;;;;;2.17;0.60;;;;;;;9.43;100.00;97461.84;5047713;28;20400;-61
2023/11/15 11:15:17;;;;;;;7.07;0.90;;;;;;;9.43;100.00;97454.53;5035902;28;20095;-61
2023/11/15 11:17:45;;;;;;;1.83;0.70;;;;;;;9.41;100.00;97458.53;5048409;28;20091;-62
2023/11/15 11:20:26;;;;;;;5.30;1.35;;;;;;;9.44;100.00;97458.88;5040043;28;20057;-62
2023/11/15 11:23:16;;;;;;;3.03;0.60;;;;;;;9.60;100.00;97449.16;5043127;28;20037;-63
2023/11/15 11:25:46;;;;;;;3.97;0.70;;;;;;;9.64;100.00;97444.09;5038620;28;20079;-61
2023/11/15 11:28:14;;;;;;;2.72;1.02;;;;;;;9.70;100.00;97447.69;5029379;28;20049;-61
2023/11/15 11:30:41;;;;;;;4.32;0.82;;;;;;;9.79;100.00;97461.63;5037010;28;20049;-61
2023/11/15 11:33:18;;;;;;;2.97;0.90;;;;;;;9.88;100.00;97452.88;5041622;28;20048;-61
2023/11/15 11:35:46;;;;;;;3.63;0.65;;;;;;;9.91;100.00;97443.44;5041644;28;20049;-62
2023/11/15 11:38:53;;;;;;;5.80;1.38;;;;;;;9.89;100.00;97445.59;5035442;28;20053;-62